sensor_id;sensor_type;location;lat;lon;timestamp;pressure;altitude;pressure_sealevel;temperature;humidity
3434;BME280;1730;41.932;25.548;2022-08-01T00:00:26;99311.81;;;22.00;100.00
3434;BME280;1730;41.932;25.548;2022-08-01T00:02:52;99278.91;;;21.94;100.00
3434;BME280;1730;41.932;25.548;2022-08-01T00:05:18;99268.63;;;21.89;100.00
3434;BME280;1730;41.932;25.548;2022-08-01T00:07:44;99274.19;;;22.19;100.00
3434;BME280;1730;41.932;25.548;2022-08-01T00:10:13;99231.47;;;22.05;100.00
3434;BME280;1730;41.932;25.548;2022-08-01T00:12:39;99250.38;;;22.13;100.00
3434;BME280;1730;41.932;25.548;2022-08-01T00:15:07;99238.66;;;22.06;100.00
3434;BME280;1730;41.932;25.548;2022-08-01T00:17:32;99246.13;;;21.99;100.00
3434;BME280;1730;41.932;25.548;2022-08-01T00:19:59;99213.63;;;21.96;100.00
3434;BME280;1730;41.932;25.548;2022-08-01T00:22:25;99204.22;;;21.85;100.00
3434;BME280;1730;41.932;25.548;2022-08-01T00:24:50;99257.47;;;21.84;100.00
3434;BME280;1730;41.932;25.548;2022-08-01T00:27:16;99215.66;;;21.82;100.00
3434;BME280;1730;41.932;25.548;2022-08-01T00:29:42;99272.72;;;21.80;100.00
3434;BME280;1730;41.932;25.548;2022-08-01T00:32:08;98728.94;;;18.75;100.00
3434;BME280;1730;41.932;25.548;2022-08-01T00:34:33;99090.66;;;20.71;100.00
3434;BME280;1730;41.932;25.548;2022-08-01T00:36:59;99276.13;;;21.57;100.00
3434;BME280;1730;41.932;25.548;2022-08-01T00:39:25;99312.97;;;21.43;100.00
3434;BME280;1730;41.932;25.548;2022-08-01T00:41:50;99135.72;;;20.50;100.00
3434;BME280;1730;41.932;25.548;2022-08-01T00:44:16;98876.19;;;18.90;100.00
3434;BME280;1730;41.932;25.548;2022-08-01T00:46:42;99292.25;;;21.47;100.00
3434;BME280;1730;41.932;25.548;2022-08-01T00:49:07;99191.59;;;20.74;100.00
3434;BME280;1730;41.932;25.548;2022-08-01T00:51:33;99278.44;;;21.36;100.00
3434;BME280;1730;41.932;25.548;2022-08-01T00:54:00;98850.75;;;18.89;100.00
3434;BME280;1730;41.932;25.548;2022-08-01T00:56:26;99134.34;;;20.65;100.00
3434;BME280;1730;41.932;25.548;2022-08-01T00:58:54;99198.63;;;21.19;100.00
3434;BME280;1730;41.932;25.548;2022-08-01T01:01:23;99232.47;;;21.31;100.00
3434;BME280;1730;41.932;25.548;2022-08-01T01:03:50;99190.97;;;21.28;100.00
3434;BME280;1730;41.932;25.548;2022-08-01T01:09:22;99153.00;;;21.61;100.00
3434;BME280;1730;41.932;25.548;2022-08-01T01:17:28;99016.09;;;22.24;100.00
3434;BME280;1730;41.932;25.548;2022-08-01T01:19:57;98970.22;;;22.48;100.00
3434;BME280;1730;41.932;25.548;2022-08-01T01:22:47;98938.91;;;22.49;100.00
3434;BME280;1730;41.932;25.548;2022-08-01T01:25:32;98957.56;;;22.59;100.00
3434;BME280;1730;41.932;25.548;2022-08-01T01:30:51;98885.69;;;22.78;100.00
3434;BME280;1730;41.932;25.548;2022-08-01T01:33:20;98877.94;;;22.75;100.00
3434;BME280;1730;41.932;25.548;2022-08-01T01:35:52;98830.72;;;22.78;100.00
3434;BME280;1730;41.932;25.548;2022-08-01T01:38:26;98788.25;;;22.46;100.00
3434;BME280;1730;41.932;25.548;2022-08-01T01:40:55;98700.47;;;22.11;100.00
3434;BME280;1730;41.932;25.548;2022-08-01T01:43:21;98813.56;;;22.60;100.00
3434;BME280;1730;41.932;25.548;2022-08-01T01:45:49;98814.81;;;22.69;100.00
3434;BME280;1730;41.932;25.548;2022-08-01T01:48:18;98825.22;;;22.67;100.00
3434;BME280;1730;41.932;25.548;2022-08-01T01:50:46;98816.03;;;22.61;100.00
3434;BME280;1730;41.932;25.548;2022-08-01T01:53:14;98227.41;;;18.74;100.00
3434;BME280;1730;41.932;25.548;2022-08-01T01:55:44;98815.94;;;22.56;100.00
3434;BME280;1730;41.932;25.548;2022-08-01T01:58:13;98812.22;;;22.62;100.00
3434;BME280;1730;41.932;25.548;2022-08-01T02:00:40;98802.59;;;22.48;100.00
3434;BME280;1730;41.932;25.548;2022-08-01T02:03:10;98810.03;;;22.36;100.00
3434;BME280;1730;41.932;25.548;2022-08-01T02:05:37;98811.22;;;22.40;100.00
3434;BME280;1730;41.932;25.548;2022-08-01T02:08:04;98839.06;;;22.32;100.00
3434;BME280;1730;41.932;25.548;2022-08-01T02:10:32;98834.41;;;22.32;100.00
3434;BME280;1730;41.932;25.548;2022-08-01T02:13:02;98837.03;;;22.27;100.00
3434;BME280;1730;41.932;25.548;2022-08-01T02:15:31;98824.72;;;22.41;100.00
3434;BME280;1730;41.932;25.548;2022-08-01T02:18:01;98848.88;;;22.28;100.00
3434;BME280;1730;41.932;25.548;2022-08-01T02:20:29;98811.25;;;22.28;100.00
3434;BME280;1730;41.932;25.548;2022-08-01T02:23:01;98622.44;;;21.09;100.00
3434;BME280;1730;41.932;25.548;2022-08-01T02:25:56;98826.09;;;22.16;100.00
3434;BME280;1730;41.932;25.548;2022-08-01T02:28:32;98812.13;;;22.06;100.00
3434;BME280;1730;41.932;25.548;2022-08-01T02:31:04;98671.66;;;20.92;100.00
3434;BME280;1730;41.932;25.548;2022-08-01T02:33:41;98866.28;;;21.75;100.00
3434;BME280;1730;41.932;25.548;2022-08-01T02:36:11;98858.41;;;21.67;100.00
3434;BME280;1730;41.932;25.548;2022-08-01T02:38:40;98709.53;;;20.84;100.00
3434;BME280;1730;41.932;25.548;2022-08-01T02:41:12;98845.03;;;21.71;100.00
3434;BME280;1730;41.932;25.548;2022-08-01T02:43:43;98732.12;;;21.21;100.00
3434;BME280;1730;41.932;25.548;2022-08-01T02:46:22;98630.06;;;20.84;100.00
3434;BME280;1730;41.932;25.548;2022-08-01T02:48:53;98809.81;;;21.91;100.00
3434;BME280;1730;41.932;25.548;2022-08-01T02:51:23;98779.28;;;21.99;100.00
3434;BME280;1730;41.932;25.548;2022-08-01T02:53:50;98767.94;;;22.07;100.00
3434;BME280;1730;41.932;25.548;2022-08-01T02:56:19;98760.75;;;22.18;100.00
3434;BME280;1730;41.932;25.548;2022-08-01T02:58:46;98622.91;;;21.41;100.00
3434;BME280;1730;41.932;25.548;2022-08-01T03:01:14;98769.31;;;22.21;100.00
3434;BME280;1730;41.932;25.548;2022-08-01T03:03:41;98742.47;;;22.23;100.00
3434;BME280;1730;41.932;25.548;2022-08-01T03:06:07;98754.12;;;22.30;100.00
3434;BME280;1730;41.932;25.548;2022-08-01T03:08:35;98604.91;;;21.33;100.00
3434;BME280;1730;41.932;25.548;2022-08-01T03:11:03;98784.97;;;22.32;100.00
3434;BME280;1730;41.932;25.548;2022-08-01T03:13:30;98780.38;;;22.38;100.00
3434;BME280;1730;41.932;25.548;2022-08-01T03:15:58;98798.19;;;22.35;100.00
3434;BME280;1730;41.932;25.548;2022-08-01T03:18:26;98759.19;;;22.22;100.00
3434;BME280;1730;41.932;25.548;2022-08-01T03:20:55;98753.09;;;22.20;100.00
3434;BME280;1730;41.932;25.548;2022-08-01T03:23:22;98780.19;;;22.16;100.00
3434;BME280;1730;41.932;25.548;2022-08-01T03:25:49;98451.72;;;20.39;100.00
3434;BME280;1730;41.932;25.548;2022-08-01T03:28:18;98787.88;;;22.14;100.00
3434;BME280;1730;41.932;25.548;2022-08-01T03:30:47;98685.25;;;21.69;100.00
3434;BME280;1730;41.932;25.548;2022-08-01T03:33:13;98274.81;;;19.21;100.00
3434;BME280;1730;41.932;25.548;2022-08-01T03:35:45;98754.53;;;22.22;100.00
3434;BME280;1730;41.932;25.548;2022-08-01T03:38:13;98770.66;;;22.19;100.00
3434;BME280;1730;41.932;25.548;2022-08-01T03:41:09;98754.28;;;22.24;100.00
3434;BME280;1730;41.932;25.548;2022-08-01T03:43:41;98475.38;;;20.91;100.00
3434;BME280;1730;41.932;25.548;2022-08-01T03:46:18;98752.66;;;22.79;100.00
3434;BME280;1730;41.932;25.548;2022-08-01T03:48:48;98721.16;;;23.04;100.00
3434;BME280;1730;41.932;25.548;2022-08-01T03:51:14;98713.69;;;23.16;100.00
3434;BME280;1730;41.932;25.548;2022-08-01T03:53:41;98546.34;;;22.41;100.00
3434;BME280;1730;41.932;25.548;2022-08-01T03:56:08;98706.19;;;23.45;100.00
3434;BME280;1730;41.932;25.548;2022-08-01T03:58:36;98708.88;;;23.78;100.00
3434;BME280;1730;41.932;25.548;2022-08-01T04:01:05;98716.19;;;23.89;100.00
3434;BME280;1730;41.932;25.548;2022-08-01T04:03:32;98694.16;;;24.11;100.00
3434;BME280;1730;41.932;25.548;2022-08-01T04:05:58;98333.94;;;21.35;100.00
3434;BME280;1730;41.932;25.548;2022-08-01T04:08:34;98710.44;;;24.34;100.00
3434;BME280;1730;41.932;25.548;2022-08-01T04:11:01;98693.41;;;24.64;100.00
3434;BME280;1730;41.932;25.548;2022-08-01T04:13:26;98702.59;;;25.01;100.00
3434;BME280;1730;41.932;25.548;2022-08-01T04:15:52;98562.94;;;24.32;100.00
3434;BME280;1730;41.932;25.548;2022-08-01T04:18:18;98696.91;;;25.13;100.00
3434;BME280;1730;41.932;25.548;2022-08-01T04:20:46;98436.47;;;23.45;100.00
3434;BME280;1730;41.932;25.548;2022-08-01T04:23:14;98703.13;;;24.98;100.00
3434;BME280;1730;41.932;25.548;2022-08-01T04:25:43;98556.84;;;24.56;100.00
3434;BME280;1730;41.932;25.548;2022-08-01T04:28:12;98712.00;;;25.74;100.00
3434;BME280;1730;41.932;25.548;2022-08-01T04:30:42;98698.00;;;25.91;100.00
3434;BME280;1730;41.932;25.548;2022-08-01T04:33:10;98504.63;;;25.29;100.00
3434;BME280;1730;41.932;25.548;2022-08-01T04:35:38;98471.13;;;24.63;100.00
3434;BME280;1730;41.932;25.548;2022-08-01T04:38:07;98693.41;;;26.94;100.00
3434;BME280;1730;41.932;25.548;2022-08-01T04:40:35;98708.84;;;26.02;100.00
3434;BME280;1730;41.932;25.548;2022-08-01T04:43:02;98705.41;;;26.32;100.00
3434;BME280;1730;41.932;25.548;2022-08-01T04:45:28;98192.00;;;23.05;100.00
3434;BME280;1730;41.932;25.548;2022-08-01T04:47:54;98439.47;;;25.23;100.00
3434;BME280;1730;41.932;25.548;2022-08-01T04:50:20;98708.34;;;27.23;97.72
3434;BME280;1730;41.932;25.548;2022-08-01T04:52:47;98709.47;;;27.38;90.59
3434;BME280;1730;41.932;25.548;2022-08-01T04:55:13;98586.81;;;26.71;88.03
3434;BME280;1730;41.932;25.548;2022-08-01T04:57:43;98282.03;;;24.82;81.85
3434;BME280;1730;41.932;25.548;2022-08-01T05:00:11;98703.06;;;26.86;86.60
3434;BME280;1730;41.932;25.548;2022-08-01T05:02:37;98704.47;;;27.24;82.86
3434;BME280;1730;41.932;25.548;2022-08-01T05:05:03;98585.44;;;26.59;82.97
3434;BME280;1730;41.932;25.548;2022-08-01T05:07:32;98692.56;;;27.64;79.34
3434;BME280;1730;41.932;25.548;2022-08-01T05:09:58;98677.31;;;27.62;73.97
3434;BME280;1730;41.932;25.548;2022-08-01T05:12:23;98670.38;;;27.39;76.41
3434;BME280;1730;41.932;25.548;2022-08-01T05:14:49;98726.66;;;27.50;75.80
3434;BME280;1730;41.932;25.548;2022-08-01T05:17:14;98649.84;;;27.70;73.53
3434;BME280;1730;41.932;25.548;2022-08-01T05:19:41;98691.94;;;27.83;71.31
3434;BME280;1730;41.932;25.548;2022-08-01T05:22:09;98501.63;;;26.53;67.30
3434;BME280;1730;41.932;25.548;2022-08-01T05:24:37;98560.50;;;26.99;67.22
3434;BME280;1730;41.932;25.548;2022-08-01T05:27:04;98671.75;;;27.62;66.02
3434;BME280;1730;41.932;25.548;2022-08-01T05:29:30;98512.94;;;26.72;64.36
3434;BME280;1730;41.932;25.548;2022-08-01T05:31:58;98678.06;;;27.83;63.84
3434;BME280;1730;41.932;25.548;2022-08-01T05:34:25;98362.00;;;25.70;63.75
3434;BME280;1730;41.932;25.548;2022-08-01T05:36:50;98387.16;;;25.78;65.09
3434;BME280;1730;41.932;25.548;2022-08-01T05:39:17;98554.72;;;26.80;64.59
3434;BME280;1730;41.932;25.548;2022-08-01T05:41:43;98692.16;;;28.11;61.63
3434;BME280;1730;41.932;25.548;2022-08-01T05:44:09;98553.53;;;27.27;59.99
3434;BME280;1730;41.932;25.548;2022-08-01T05:46:35;98557.62;;;27.60;83.58
3434;BME280;1730;41.932;25.548;2022-08-01T05:49:02;98704.38;;;30.66;74.11
3434;BME280;1730;41.932;25.548;2022-08-01T05:51:29;98684.59;;;30.44;60.71
3434;BME280;1730;41.932;25.548;2022-08-01T05:53:55;98688.25;;;30.63;55.53
3434;BME280;1730;41.932;25.548;2022-08-01T05:56:21;98687.84;;;31.26;50.37
3434;BME280;1730;41.932;25.548;2022-08-01T05:58:48;98649.00;;;31.16;48.90
3434;BME280;1730;41.932;25.548;2022-08-01T06:01:15;98700.81;;;31.95;47.36
3434;BME280;1730;41.932;25.548;2022-08-01T06:03:40;98675.28;;;31.74;47.29
3434;BME280;1730;41.932;25.548;2022-08-01T06:06:06;98682.41;;;30.83;49.49
3434;BME280;1730;41.932;25.548;2022-08-01T06:08:32;98689.75;;;31.12;48.84
3434;BME280;1730;41.932;25.548;2022-08-01T06:10:58;98622.78;;;29.81;52.40
3434;BME280;1730;41.932;25.548;2022-08-01T06:13:23;98684.41;;;30.78;49.17
3434;BME280;1730;41.932;25.548;2022-08-01T06:15:49;98681.41;;;30.93;50.02
3434;BME280;1730;41.932;25.548;2022-08-01T06:18:15;98678.53;;;31.17;47.72
3434;BME280;1730;41.932;25.548;2022-08-01T06:20:41;98670.56;;;30.12;44.42
3434;BME280;1730;41.932;25.548;2022-08-01T06:23:07;98673.28;;;29.93;50.64
3434;BME280;1730;41.932;25.548;2022-08-01T06:25:34;98646.22;;;31.16;44.92
3434;BME280;1730;41.932;25.548;2022-08-01T06:28:00;98680.41;;;31.21;48.26
3434;BME280;1730;41.932;25.548;2022-08-01T06:30:26;98668.84;;;30.77;43.42
3434;BME280;1730;41.932;25.548;2022-08-01T06:32:52;98668.28;;;30.94;46.02
3434;BME280;1730;41.932;25.548;2022-08-01T06:35:17;98675.84;;;30.74;43.90
3434;BME280;1730;41.932;25.548;2022-08-01T06:37:45;98670.19;;;30.79;42.34
3434;BME280;1730;41.932;25.548;2022-08-01T06:40:13;98656.91;;;30.58;41.81
3434;BME280;1730;41.932;25.548;2022-08-01T06:42:57;98671.22;;;30.04;41.43
3434;BME280;1730;41.932;25.548;2022-08-01T06:45:46;98670.13;;;30.47;40.51
3434;BME280;1730;41.932;25.548;2022-08-01T06:48:11;98671.38;;;30.12;41.00
3434;BME280;1730;41.932;25.548;2022-08-01T06:50:37;98669.75;;;29.87;41.48
3434;BME280;1730;41.932;25.548;2022-08-01T06:53:03;98661.25;;;30.64;40.64
3434;BME280;1730;41.932;25.548;2022-08-01T06:55:28;98665.91;;;30.87;39.63
3434;BME280;1730;41.932;25.548;2022-08-01T06:57:54;98658.28;;;30.36;39.01
3434;BME280;1730;41.932;25.548;2022-08-01T07:00:21;98651.19;;;30.25;39.54
3434;BME280;1730;41.932;25.548;2022-08-01T07:02:54;98655.41;;;30.41;39.22
3434;BME280;1730;41.932;25.548;2022-08-01T07:05:20;98651.84;;;30.17;39.09
3434;BME280;1730;41.932;25.548;2022-08-01T07:07:46;98655.38;;;30.04;38.41
3434;BME280;1730;41.932;25.548;2022-08-01T07:10:12;98659.16;;;30.13;38.72
3434;BME280;1730;41.932;25.548;2022-08-01T07:12:37;98647.47;;;30.11;38.65
3434;BME280;1730;41.932;25.548;2022-08-01T07:15:05;98643.09;;;29.81;38.70
3434;BME280;1730;41.932;25.548;2022-08-01T07:17:31;98660.81;;;30.14;38.41
3434;BME280;1730;41.932;25.548;2022-08-01T07:19:56;98650.28;;;29.59;38.98
3434;BME280;1730;41.932;25.548;2022-08-01T07:22:22;98641.63;;;29.89;38.69
3434;BME280;1730;41.932;25.548;2022-08-01T07:24:47;98651.81;;;29.46;39.75
3434;BME280;1730;41.932;25.548;2022-08-01T07:27:14;98657.75;;;29.92;39.44
3434;BME280;1730;41.932;25.548;2022-08-01T07:29:40;98655.38;;;29.75;39.22
3434;BME280;1730;41.932;25.548;2022-08-01T07:32:05;98651.66;;;29.85;39.34
3434;BME280;1730;41.932;25.548;2022-08-01T07:34:31;98634.41;;;29.64;39.28
3434;BME280;1730;41.932;25.548;2022-08-01T07:36:56;98607.53;;;29.31;39.46
3434;BME280;1730;41.932;25.548;2022-08-01T07:39:22;98633.91;;;29.81;39.19
3434;BME280;1730;41.932;25.548;2022-08-01T07:41:48;98639.78;;;29.55;38.65
3434;BME280;1730;41.932;25.548;2022-08-01T07:44:13;98630.69;;;29.45;39.75
3434;BME280;1730;41.932;25.548;2022-08-01T07:46:39;98634.91;;;29.14;39.67
3434;BME280;1730;41.932;25.548;2022-08-01T07:49:05;98646.94;;;29.62;40.27
3434;BME280;1730;41.932;25.548;2022-08-01T07:51:31;98627.13;;;29.68;39.61
3434;BME280;1730;41.932;25.548;2022-08-01T07:53:56;98641.78;;;29.50;40.21
3434;BME280;1730;41.932;25.548;2022-08-01T07:56:22;98625.28;;;29.35;39.78
3434;BME280;1730;41.932;25.548;2022-08-01T07:58:50;98636.87;;;29.66;39.42
3434;BME280;1730;41.932;25.548;2022-08-01T08:01:16;98631.06;;;29.62;39.77
3434;BME280;1730;41.932;25.548;2022-08-01T08:03:41;98618.97;;;29.53;39.16
3434;BME280;1730;41.932;25.548;2022-08-01T08:06:07;98642.69;;;29.40;40.00
3434;BME280;1730;41.932;25.548;2022-08-01T08:08:32;98646.53;;;28.82;40.25
3434;BME280;1730;41.932;25.548;2022-08-01T08:11:00;98647.94;;;29.47;41.16
3434;BME280;1730;41.932;25.548;2022-08-01T08:13:26;98643.97;;;29.53;41.03
3434;BME280;1730;41.932;25.548;2022-08-01T08:15:52;98637.91;;;29.75;39.99
3434;BME280;1730;41.932;25.548;2022-08-01T08:18:18;98636.84;;;29.42;40.75
3434;BME280;1730;41.932;25.548;2022-08-01T08:20:43;98643.16;;;29.52;40.67
3434;BME280;1730;41.932;25.548;2022-08-01T08:23:09;98649.53;;;29.19;40.19
3434;BME280;1730;41.932;25.548;2022-08-01T08:25:54;98641.34;;;29.38;40.95
3434;BME280;1730;41.932;25.548;2022-08-01T08:28:19;98635.63;;;29.77;40.40
3434;BME280;1730;41.932;25.548;2022-08-01T08:30:45;98639.22;;;29.25;41.01
3434;BME280;1730;41.932;25.548;2022-08-01T08:33:11;98644.97;;;29.38;40.74
3434;BME280;1730;41.932;25.548;2022-08-01T08:35:39;98635.75;;;29.43;40.89
3434;BME280;1730;41.932;25.548;2022-08-01T08:38:05;98629.53;;;28.88;42.29
3434;BME280;1730;41.932;25.548;2022-08-01T08:40:31;98627.69;;;29.41;42.64
3434;BME280;1730;41.932;25.548;2022-08-01T08:43:00;98637.72;;;29.90;41.48
3434;BME280;1730;41.932;25.548;2022-08-01T08:45:27;98621.16;;;29.56;40.93
3434;BME280;1730;41.932;25.548;2022-08-01T08:47:54;98627.88;;;29.50;41.14
3434;BME280;1730;41.932;25.548;2022-08-01T08:50:21;98642.19;;;29.91;40.77
3434;BME280;1730;41.932;25.548;2022-08-01T08:52:47;98632.38;;;29.46;42.17
3434;BME280;1730;41.932;25.548;2022-08-01T08:55:15;98629.87;;;30.16;40.50
3434;BME280;1730;41.932;25.548;2022-08-01T08:57:43;98613.09;;;30.02;39.39
3434;BME280;1730;41.932;25.548;2022-08-01T09:00:10;98531.94;;;29.76;40.00
3434;BME280;1730;41.932;25.548;2022-08-01T09:02:44;98630.25;;;29.85;40.68
3434;BME280;1730;41.932;25.548;2022-08-01T09:05:11;98611.44;;;29.77;40.28
3434;BME280;1730;41.932;25.548;2022-08-01T09:07:38;98624.03;;;30.17;40.17
3434;BME280;1730;41.932;25.548;2022-08-01T09:10:04;98595.41;;;29.93;40.35
3434;BME280;1730;41.932;25.548;2022-08-01T09:12:30;98606.66;;;30.25;39.70
3434;BME280;1730;41.932;25.548;2022-08-01T09:14:57;98605.22;;;30.09;40.00
3434;BME280;1730;41.932;25.548;2022-08-01T09:17:23;98609.50;;;30.20;40.20
3434;BME280;1730;41.932;25.548;2022-08-01T09:19:54;98604.06;;;29.91;40.25
3434;BME280;1730;41.932;25.548;2022-08-01T09:22:22;98597.47;;;30.49;40.30
3434;BME280;1730;41.932;25.548;2022-08-01T09:25:08;98592.31;;;30.56;39.62
3434;BME280;1730;41.932;25.548;2022-08-01T09:27:35;98593.66;;;30.39;38.56
3434;BME280;1730;41.932;25.548;2022-08-01T09:30:25;98587.50;;;30.05;38.97
3434;BME280;1730;41.932;25.548;2022-08-01T09:32:54;98599.22;;;30.21;39.15
3434;BME280;1730;41.932;25.548;2022-08-01T09:35:28;98608.56;;;30.30;38.33
3434;BME280;1730;41.932;25.548;2022-08-01T09:38:17;98584.16;;;30.03;39.34
3434;BME280;1730;41.932;25.548;2022-08-01T09:40:54;98598.34;;;30.63;39.01
3434;BME280;1730;41.932;25.548;2022-08-01T09:43:21;98466.25;;;29.80;38.41
3434;BME280;1730;41.932;25.548;2022-08-01T09:45:47;98582.97;;;30.84;38.27
3434;BME280;1730;41.932;25.548;2022-08-01T09:48:13;98573.59;;;30.61;38.62
3434;BME280;1730;41.932;25.548;2022-08-01T09:50:43;98586.00;;;30.69;38.35
3434;BME280;1730;41.932;25.548;2022-08-01T09:53:10;98574.50;;;30.57;38.01
3434;BME280;1730;41.932;25.548;2022-08-01T09:55:36;98576.56;;;30.83;38.76
3434;BME280;1730;41.932;25.548;2022-08-01T09:58:02;98585.75;;;30.28;38.91
3434;BME280;1730;41.932;25.548;2022-08-01T10:00:30;98579.38;;;30.65;39.28
3434;BME280;1730;41.932;25.548;2022-08-01T10:02:55;98575.34;;;30.57;38.52
3434;BME280;1730;41.932;25.548;2022-08-01T10:05:31;98560.97;;;30.82;38.51
3434;BME280;1730;41.932;25.548;2022-08-01T10:08:03;98579.22;;;30.75;38.50
3434;BME280;1730;41.932;25.548;2022-08-01T10:10:30;98573.06;;;31.10;38.20
3434;BME280;1730;41.932;25.548;2022-08-01T10:12:58;98582.66;;;31.18;37.79
3434;BME280;1730;41.932;25.548;2022-08-01T10:15:25;98584.78;;;30.75;37.88
3434;BME280;1730;41.932;25.548;2022-08-01T10:17:54;98577.97;;;30.81;38.23
3434;BME280;1730;41.932;25.548;2022-08-01T10:20:21;98547.88;;;30.83;37.76
3434;BME280;1730;41.932;25.548;2022-08-01T10:22:49;98584.91;;;31.16;37.41
3434;BME280;1730;41.932;25.548;2022-08-01T10:25:17;98571.88;;;30.98;37.45
3434;BME280;1730;41.932;25.548;2022-08-01T10:27:43;98548.44;;;30.99;37.88
3434;BME280;1730;41.932;25.548;2022-08-01T10:30:11;98577.69;;;31.01;37.75
3434;BME280;1730;41.932;25.548;2022-08-01T10:32:37;98577.16;;;30.80;37.97
3434;BME280;1730;41.932;25.548;2022-08-01T10:35:06;98582.56;;;31.23;38.26
3434;BME280;1730;41.932;25.548;2022-08-01T10:37:35;98561.22;;;31.32;38.01
3434;BME280;1730;41.932;25.548;2022-08-01T10:40:01;98588.44;;;31.21;37.80
3434;BME280;1730;41.932;25.548;2022-08-01T10:42:28;98585.44;;;31.18;37.81
3434;BME280;1730;41.932;25.548;2022-08-01T10:44:57;98580.47;;;30.82;37.17
3434;BME280;1730;41.932;25.548;2022-08-01T10:47:40;98498.34;;;30.66;37.25
3434;BME280;1730;41.932;25.548;2022-08-01T10:50:35;98563.81;;;31.28;37.62
3434;BME280;1730;41.932;25.548;2022-08-01T10:53:06;98580.53;;;31.28;37.75
3434;BME280;1730;41.932;25.548;2022-08-01T10:56:04;98585.78;;;31.30;37.62
3434;BME280;1730;41.932;25.548;2022-08-01T10:58:36;98566.44;;;31.06;37.52
3434;BME280;1730;41.932;25.548;2022-08-01T11:12:06;98446.97;;;30.72;36.57
3434;BME280;1730;41.932;25.548;2022-08-01T11:17:35;98588.78;;;31.47;37.39
3434;BME280;1730;41.932;25.548;2022-08-01T11:20:10;98580.25;;;31.71;37.44
3434;BME280;1730;41.932;25.548;2022-08-01T11:23:14;98567.63;;;31.87;36.64
3434;BME280;1730;41.932;25.548;2022-08-01T11:31:36;98558.03;;;31.52;37.09
3434;BME280;1730;41.932;25.548;2022-08-01T11:38:47;98549.59;;;31.57;36.81
3434;BME280;1730;41.932;25.548;2022-08-01T11:49:34;98555.47;;;31.83;37.20
3434;BME280;1730;41.932;25.548;2022-08-01T11:54:40;98549.22;;;32.13;37.91
3434;BME280;1730;41.932;25.548;2022-08-01T11:57:08;98552.69;;;32.33;37.24
3434;BME280;1730;41.932;25.548;2022-08-01T11:59:43;98549.19;;;32.63;36.76
3434;BME280;1730;41.932;25.548;2022-08-01T12:02:31;98544.91;;;32.88;36.15
3434;BME280;1730;41.932;25.548;2022-08-01T12:07:30;98548.06;;;32.86;35.77
3434;BME280;1730;41.932;25.548;2022-08-01T12:10:11;98553.47;;;32.11;36.36
3434;BME280;1730;41.932;25.548;2022-08-01T12:12:45;98495.91;;;32.15;36.06
3434;BME280;1730;41.932;25.548;2022-08-01T12:15:12;98534.62;;;32.16;36.33
3434;BME280;1730;41.932;25.548;2022-08-01T12:17:43;98543.72;;;31.72;37.35
3434;BME280;1730;41.932;25.548;2022-08-01T12:20:11;98528.34;;;32.25;36.73
3434;BME280;1730;41.932;25.548;2022-08-01T12:22:37;98537.16;;;32.40;36.50
3434;BME280;1730;41.932;25.548;2022-08-01T12:25:11;98531.06;;;32.02;37.18
3434;BME280;1730;41.932;25.548;2022-08-01T12:27:38;98532.56;;;31.59;37.37
3434;BME280;1730;41.932;25.548;2022-08-01T12:30:08;98562.88;;;32.15;37.10
3434;BME280;1730;41.932;25.548;2022-08-01T12:32:37;98380.13;;;31.68;36.42
3434;BME280;1730;41.932;25.548;2022-08-01T12:35:15;98420.69;;;31.96;35.93
3434;BME280;1730;41.932;25.548;2022-08-01T12:37:41;98547.53;;;32.26;36.59
3434;BME280;1730;41.932;25.548;2022-08-01T12:42:37;98544.16;;;32.51;36.49
3434;BME280;1730;41.932;25.548;2022-08-01T12:45:06;98520.47;;;32.49;35.77
3434;BME280;1730;41.932;25.548;2022-08-01T12:47:33;98515.50;;;32.24;36.02
3434;BME280;1730;41.932;25.548;2022-08-01T12:49:59;98525.25;;;32.71;35.93
3434;BME280;1730;41.932;25.548;2022-08-01T12:52:25;98437.41;;;32.10;35.83
3434;BME280;1730;41.932;25.548;2022-08-01T12:55:01;98246.81;;;30.84;35.74
3434;BME280;1730;41.932;25.548;2022-08-01T12:57:28;98507.59;;;32.61;35.91
3434;BME280;1730;41.932;25.548;2022-08-01T13:03:05;98497.44;;;32.88;35.21
3434;BME280;1730;41.932;25.548;2022-08-01T13:06:05;98506.16;;;32.86;35.00
3434;BME280;1730;41.932;25.548;2022-08-01T13:08:34;98397.91;;;32.47;35.11
3434;BME280;1730;41.932;25.548;2022-08-01T13:11:05;98498.63;;;33.26;35.40
3434;BME280;1730;41.932;25.548;2022-08-01T13:26:52;98492.25;;;32.50;35.99
3434;BME280;1730;41.932;25.548;2022-08-01T13:29:31;98499.47;;;32.74;35.86
3434;BME280;1730;41.932;25.548;2022-08-01T13:31:58;98491.41;;;32.94;35.41
3434;BME280;1730;41.932;25.548;2022-08-01T13:34:36;98502.62;;;33.03;35.37
3434;BME280;1730;41.932;25.548;2022-08-01T13:37:31;98501.50;;;32.59;35.32
3434;BME280;1730;41.932;25.548;2022-08-01T13:39:57;98491.97;;;32.60;35.40
3434;BME280;1730;41.932;25.548;2022-08-01T13:42:22;98487.53;;;33.13;35.17
3434;BME280;1730;41.932;25.548;2022-08-01T13:44:48;98088.91;;;30.63;35.02
3434;BME280;1730;41.932;25.548;2022-08-01T13:47:13;98370.69;;;32.53;34.55
3434;BME280;1730;41.932;25.548;2022-08-01T13:49:39;98506.75;;;32.61;35.29
3434;BME280;1730;41.932;25.548;2022-08-01T13:52:05;98229.25;;;30.98;35.79
3434;BME280;1730;41.932;25.548;2022-08-01T13:54:33;98491.31;;;32.77;34.73
3434;BME280;1730;41.932;25.548;2022-08-01T13:56:59;98246.16;;;31.15;35.25
3434;BME280;1730;41.932;25.548;2022-08-01T13:59:25;98496.94;;;32.86;35.34
3434;BME280;1730;41.932;25.548;2022-08-01T14:01:51;98500.22;;;32.88;34.97
3434;BME280;1730;41.932;25.548;2022-08-01T14:04:16;98242.59;;;31.01;35.62
3434;BME280;1730;41.932;25.548;2022-08-01T14:06:42;98502.88;;;32.48;35.77
3434;BME280;1730;41.932;25.548;2022-08-01T14:09:08;98485.13;;;32.22;35.44
3434;BME280;1730;41.932;25.548;2022-08-01T14:11:33;98347.22;;;32.01;35.19
3434;BME280;1730;41.932;25.548;2022-08-01T14:13:59;98366.53;;;32.11;34.66
3434;BME280;1730;41.932;25.548;2022-08-01T14:16:36;98176.12;;;30.94;35.01
3434;BME280;1730;41.932;25.548;2022-08-01T14:19:06;98489.38;;;32.86;34.82
3434;BME280;1730;41.932;25.548;2022-08-01T14:21:32;98509.69;;;32.56;35.25
3434;BME280;1730;41.932;25.548;2022-08-01T14:23:58;98299.09;;;30.87;36.20